Mike Planche — WDC6331 — position and weather

sailwx.info

Track history (hours):
 
Tides and Currents Weather Stations Pressure Air Temp Water Temp Dewpoint Dewpoint Depression Visibility Wind Speed Wind Dir Waves Ship Positions

Mike Planche

Owner: ACL Transportation Services LLC, Jeffersonville, IN. More information available from US FCC via Universal Licensing System and Coast Guard Vessel Documentation Center.

Last reported at 2014-Oct-08 13:33 UTC. Time now 2014-Oct-22 21:51 UTC.
Position N 29°37' W 091°04'.
Warning: this ship's position is 14 days out of date.

Length 25 m; draft 3 m.

Type: Towing. MMSI: 367054810.

Date/timePositionNaut miles runAvg speedWind from/ knotsBaromVisibWave heightAir tempDewpointWater temp
2014-Oct-08 13:33N 29°37' W 091°04'7 7.0
2014-Oct-08 12:32N 29°41' W 091°11'8 7.9
2014-Oct-08 11:33N 29°38' W 091°20'10 8.3
2014-Oct-08 10:22N 29°42' W 091°30'  
2014-Sep-29 20:13N 29°28' W 094°51'4 6.3
2014-Sep-29 19:33N 29°31' W 094°53'6 5.8
2014-Sep-29 18:33N 29°36' W 094°57'5 5.5
2014-Sep-29 17:33N 29°41' W 094°59'4 4.1
2014-Sep-29 16:33N 29°44' W 095°03'3 3.1
2014-Sep-29 15:33N 29°45' W 095°06'4 4.1
2014-Sep-29 14:33N 29°45' W 095°11'0 0.0
2014-Sep-28 15:04N 29°45' W 095°11'3 5.2
2014-Sep-28 14:27N 29°44' W 095°08'  
Track history (hours):
 
Tides and Currents Weather Stations Pressure Air Temp Water Temp Dewpoint Dewpoint Depression Visibility Wind Speed Wind Dir Waves Ship Positions

Mike Planche

Owner: ACL Transportation Services LLC, Jeffersonville, IN. More information available from US FCC via Universal Licensing System and Coast Guard Vessel Documentation Center.

Last reported at 2014-Oct-08 13:33 UTC. Time now 2014-Oct-22 21:51 UTC.
Position N 29°37' W 091°04'.
Warning: this ship's position is 14 days out of date.

Length 25 m; draft 3 m.

Type: Towing. MMSI: 367054810.

Date/timePositionNaut miles runAvg speedWind from/ knotsBaromVisibWave heightAir tempDewpointWater temp
2014-Oct-08 13:33N 29°37' W 091°04'7 7.0
2014-Oct-08 12:32N 29°41' W 091°11'8 7.9
2014-Oct-08 11:33N 29°38' W 091°20'10 8.3
2014-Oct-08 10:22N 29°42' W 091°30'  
2014-Sep-29 20:13N 29°28' W 094°51'4 6.3
2014-Sep-29 19:33N 29°31' W 094°53'6 5.8
2014-Sep-29 18:33N 29°36' W 094°57'5 5.5
2014-Sep-29 17:33N 29°41' W 094°59'4 4.1
2014-Sep-29 16:33N 29°44' W 095°03'3 3.1
2014-Sep-29 15:33N 29°45' W 095°06'4 4.1
2014-Sep-29 14:33N 29°45' W 095°11'0 0.0
2014-Sep-28 15:04N 29°45' W 095°11'3 5.2
2014-Sep-28 14:27N 29°44' W 095°08'  

Dump ship's entire track history